Time,TemperatureF,DewpointF,PressureIn,WindDirection,WindDirectionDegrees,WindSpeedMPH,WindSpeedGustMPH,Humidity,HourlyPrecipIn,Conditions,Clouds,dailyrainin,SolarRadiationWatts/m^2,SoftwareType,DateUTC
2013-02-05 00:00:00,59.6,36.6,29.47,North,11,5.4,5.8,41,-99.99,,,0.00,0,rob ver 1A,2013-02-05 07:00:00,
2013-02-05 00:05:00,59.4,38.4,29.47,SW,232,2.2,2.9,45,-99.99,,,0.00,0,rob ver 1A,2013-02-05 07:05:00,
2013-02-05 00:10:00,59.3,37.0,29.47,WNW,291,2.2,2.7,43,-99.99,,,0.00,0,rob ver 1A,2013-02-05 07:10:00,
2013-02-05 00:15:00,59.9,36.6,29.47,West,267,3.9,4.3,41,-99.99,,,0.00,0,rob ver 1A,2013-02-05 07:15:00,
2013-02-05 00:20:00,60.4,37.3,29.47,West,272,5.1,5.5,43,-99.99,,,0.00,0,rob ver 1A,2013-02-05 07:20:00,
2013-02-05 00:25:00,58.5,37.6,29.47,West,264,5.8,6.6,45,-99.99,,,0.00,0,rob ver 1A,2013-02-05 07:25:00,
2013-02-05 00:30:00,57.9,38.4,29.47,WNW,283,4.5,4.8,48,-99.99,,,0.00,0,rob ver 1A,2013-02-05 07:30:00,
2013-02-05 00:35:00,57.5,38.4,29.47,NW,310,3.7,4.2,48,-99.99,,,0.00,0,rob ver 1A,2013-02-05 07:35:00,
2013-02-05 00:40:00,57.5,38.0,29.47,NW,324,2.4,2.8,48,-99.99,,,0.00,0,rob ver 1A,2013-02-05 07:40:00,
2013-02-05 00:45:00,57.5,38.0,29.47,West,276,1.3,1.5,47,-99.99,,,0.00,0,rob ver 1A,2013-02-05 07:45:00,
2013-02-05 00:50:00,57.6,37.8,29.47,NW,314,1.9,2.4,47,-99.99,,,0.00,0,rob ver 1A,2013-02-05 07:50:00,
2013-02-05 00:55:00,58.1,37.7,29.47,NW,317,2.5,2.8,46,-99.99,,,0.00,0,rob ver 1A,2013-02-05 07:55:00,
2013-02-05 01:00:00,58.2,37.4,29.47,NW,326,2.3,2.9,45,-99.99,,,0.00,0,rob ver 1A,2013-02-05 08:00:00,
2013-02-05 01:05:00,58.4,37.4,29.47,NNW,333,1.5,1.7,45,-99.99,,,0.00,0,rob ver 1A,2013-02-05 08:05:00,
2013-02-05 01:10:00,57.9,38.6,29.47,North,355,1.3,1.5,47,-99.99,,,0.00,0,rob ver 1A,2013-02-05 08:10:00,
2013-02-05 01:16:00,57.6,37.5,29.47,NNW,335,2.1,2.2,46,-99.99,,,0.00,0,rob ver 1A,2013-02-05 08:16:00,
2013-02-05 01:21:00,57.7,37.4,29.47,North,356,2.2,2.2,46,-99.99,,,0.00,0,rob ver 1A,2013-02-05 08:21:00,
2013-02-05 01:26:00,57.3,37.6,29.47,NNE,13,1.2,1.3,48,-99.99,,,0.00,0,rob ver 1A,2013-02-05 08:26:00,
2013-02-05 01:31:00,56.2,38.7,29.47,ESE,105,3.0,3.3,52,-99.99,,,0.00,0,rob ver 1A,2013-02-05 08:31:00,
2013-02-05 01:36:00,55.8,38.5,29.47,NE,35,3.6,4.3,52,-99.99,,,0.00,0,rob ver 1A,2013-02-05 08:36:00,
2013-02-05 01:41:00,55.4,38.7,29.47,NNE,31,4.4,4.8,53,-99.99,,,0.00,0,rob ver 1A,2013-02-05 08:41:00,
2013-02-05 01:46:00,55.1,39.1,29.47,WNW,302,1.5,2.4,54,-99.99,,,0.00,0,rob ver 1A,2013-02-05 08:46:00,
2013-02-05 01:51:00,55.3,38.7,29.47,NE,45,0.9,1.1,53,-99.99,,,0.00,0,rob ver 1A,2013-02-05 08:51:00,
2013-02-05 01:56:00,55.3,39.0,29.47,West,277,1.3,1.5,53,-99.99,,,0.00,0,rob ver 1A,2013-02-05 08:56:00,
2013-02-05 02:01:00,55.2,38.9,29.47,WNW,302,1.7,1.9,53,-99.99,,,0.00,0,rob ver 1A,2013-02-05 09:01:00,
2013-02-05 02:06:00,55.4,39.1,29.44,NW,318,0.6,0.8,54,-99.99,,,0.00,0,rob ver 1A,2013-02-05 09:06:00,
2013-02-05 02:11:00,55.1,38.5,29.44,North,358,1.1,1.2,53,-99.99,,,0.00,0,rob ver 1A,2013-02-05 09:11:00,
2013-02-05 02:16:00,55.4,38.4,29.44,East,84,1.9,2.1,52,-99.99,,,0.00,0,rob ver 1A,2013-02-05 09:16:00,
2013-02-05 02:21:00,55.1,39.3,29.44,West,276,0.8,1.3,54,-99.99,,,0.00,0,rob ver 1A,2013-02-05 09:21:00,
2013-02-05 02:26:00,54.2,39.7,29.44,WSW,257,1.3,1.5,57,-99.99,,,0.00,0,rob ver 1A,2013-02-05 09:26:00,
2013-02-05 02:31:00,54.0,39.6,29.44,SW,214,1.5,2.2,58,-99.99,,,0.00,0,rob ver 1A,2013-02-05 09:31:00,
2013-02-05 02:36:00,53.5,39.2,29.44,WSW,252,1.2,1.4,58,-99.99,,,0.00,0,rob ver 1A,2013-02-05 09:36:00,
2013-02-05 02:41:00,54.2,39.0,29.44,West,267,2.0,2.4,55,-99.99,,,0.00,0,rob ver 1A,2013-02-05 09:41:00,
2013-02-05 02:46:00,54.8,39.0,29.44,West,281,1.1,1.5,54,-99.99,,,0.00,0,rob ver 1A,2013-02-05 09:46:00,
2013-02-05 02:51:00,54.8,38.5,29.44,NW,318,0.9,1.0,53,-99.99,,,0.00,0,rob ver 1A,2013-02-05 09:51:00,
2013-02-05 02:56:00,55.3,38.4,29.44,NW,314,1.9,2.0,52,-99.99,,,0.00,0,rob ver 1A,2013-02-05 09:56:00,
2013-02-05 03:01:00,55.3,38.7,29.44,NW,320,2.9,3.1,53,-99.99,,,0.00,0,rob ver 1A,2013-02-05 10:01:00,
2013-02-05 03:06:00,55.6,38.8,29.44,NNW,348,2.2,2.4,52,-99.99,,,0.00,0,rob ver 1A,2013-02-05 10:06:00,
2013-02-05 03:11:00,55.3,38.8,29.44,North,353,1.6,1.8,53,-99.99,,,0.00,0,rob ver 1A,2013-02-05 10:11:00,
2013-02-05 03:16:00,55.2,38.4,29.44,NNE,14,1.8,2.0,52,-99.99,,,0.00,0,rob ver 1A,2013-02-05 10:16:00,
2013-02-05 03:21:00,56.0,38.1,29.44,North,358,2.0,2.3,50,-99.99,,,0.00,0,rob ver 1A,2013-02-05 10:21:00,
2013-02-05 03:27:00,57.1,37.5,29.44,NNW,328,1.9,2.0,47,-99.99,,,0.00,0,rob ver 1A,2013-02-05 10:27:00,
2013-02-05 03:32:00,57.8,37.3,29.44,NW,326,2.1,2.3,45,-99.99,,,0.00,0,rob ver 1A,2013-02-05 10:32:00,
2013-02-05 03:37:00,58.2,37.1,29.44,NW,308,1.6,1.7,45,-99.99,,,0.00,0,rob ver 1A,2013-02-05 10:37:00,
2013-02-05 03:42:00,58.2,37.1,29.44,WNW,298,1.6,1.6,45,-99.99,,,0.00,0,rob ver 1A,2013-02-05 10:42:00,
2013-02-05 03:47:00,58.2,37.1,29.44,West,270,1.3,1.4,45,-99.99,,,0.00,0,rob ver 1A,2013-02-05 10:47:00,
2013-02-05 03:52:00,57.9,37.2,29.44,WSW,249,2.4,2.6,46,-99.99,,,0.00,0,rob ver 1A,2013-02-05 10:52:00,
2013-02-05 03:57:00,57.7,37.2,29.44,WSW,248,2.0,2.5,46,-99.99,,,0.00,0,rob ver 1A,2013-02-05 10:57:00,
2013-02-05 04:02:00,56.3,38.4,29.44,WSW,252,1.9,2.6,51,-99.99,,,0.00,0,rob ver 1A,2013-02-05 11:02:00,
2013-02-05 04:07:00,55.0,38.7,29.44,WNW,283,2.5,3.2,54,-99.99,,,0.00,0,rob ver 1A,2013-02-05 11:07:00,
2013-02-05 04:12:00,54.6,38.9,29.44,NW,308,3.1,3.5,55,-99.99,,,0.00,0,rob ver 1A,2013-02-05 11:12:00,
2013-02-05 04:17:00,54.4,38.7,29.44,NW,314,4.1,4.3,55,-99.99,,,0.00,0,rob ver 1A,2013-02-05 11:17:00,
2013-02-05 04:22:00,54.4,38.6,29.44,NNW,329,3.7,4.1,55,-99.99,,,0.00,0,rob ver 1A,2013-02-05 11:22:00,
2013-02-05 04:27:00,54.5,38.3,29.44,NNW,344,4.1,4.4,54,-99.99,,,0.00,0,rob ver 1A,2013-02-05 11:27:00,
2013-02-05 04:32:00,53.8,38.7,29.44,North,10,5.0,5.3,56,-99.99,,,0.00,0,rob ver 1A,2013-02-05 11:32:00,
2013-02-05 04:37:00,53.0,39.0,29.44,North,0,5.0,5.4,59,-99.99,,,0.00,0,rob ver 1A,2013-02-05 11:37:00,
2013-02-05 04:42:00,53.5,38.4,29.44,North,354,4.3,4.9,55,-99.99,,,0.00,0,rob ver 1A,2013-02-05 11:42:00,
2013-02-05 04:47:00,54.5,38.4,29.44,NNW,346,2.0,2.4,54,-99.99,,,0.00,0,rob ver 1A,2013-02-05 11:47:00,
2013-02-05 04:52:00,54.6,38.3,29.44,WNW,291,3.7,4.5,53,-99.99,,,0.00,0,rob ver 1A,2013-02-05 11:52:00,
2013-02-05 04:57:00,55.3,38.5,29.44,WNW,300,3.7,4.3,53,-99.99,,,0.00,0,rob ver 1A,2013-02-05 11:57:00,
2013-02-05 05:02:00,55.2,37.9,29.44,NW,309,4.1,4.5,51,-99.99,,,0.00,0,rob ver 1A,2013-02-05 12:02:00,
2013-02-05 05:07:00,55.5,38.0,29.44,NNW,332,3.5,4.3,51,-99.99,,,0.00,0,rob ver 1A,2013-02-05 12:07:00,
2013-02-05 05:12:00,53.4,38.8,29.44,SE,137,4.1,5.2,58,-99.99,,,0.00,0,rob ver 1A,2013-02-05 12:12:00,
2013-02-05 05:17:00,51.4,39.3,29.44,SE,141,1.9,2.3,63,-99.99,,,0.00,0,rob ver 1A,2013-02-05 12:17:00,
2013-02-05 05:22:00,51.5,39.3,29.44,SE,128,2.4,2.8,63,-99.99,,,0.00,0,rob ver 1A,2013-02-05 12:22:00,
2013-02-05 05:27:00,51.9,39.3,29.44,SE,125,2.1,2.2,62,-99.99,,,0.00,0,rob ver 1A,2013-02-05 12:27:00,
2013-02-05 05:33:00,51.8,39.3,29.44,ESE,112,2.1,2.4,62,-99.99,,,0.00,0,rob ver 1A,2013-02-05 12:33:00,
2013-02-05 05:38:00,51.6,39.3,29.44,SE,128,1.7,1.9,62,-99.99,,,0.00,0,rob ver 1A,2013-02-05 12:38:00,
2013-02-05 05:43:00,51.7,39.2,29.44,ESE,110,2.0,2.3,62,-99.99,,,0.00,0,rob ver 1A,2013-02-05 12:43:00,
2013-02-05 05:48:00,52.0,39.2,29.44,East,86,1.9,2.1,61,-99.99,,,0.00,0,rob ver 1A,2013-02-05 12:48:00,
2013-02-05 05:53:00,52.3,39.2,29.44,NE,53,2.1,2.2,60,-99.99,,,0.00,0,rob ver 1A,2013-02-05 12:53:00,
2013-02-05 05:58:00,52.2,39.2,29.44,NE,42,1.1,1.4,61,-99.99,,,0.00,0,rob ver 1A,2013-02-05 12:58:00,
2013-02-05 06:03:00,51.8,39.2,29.44,ENE,73,1.4,1.5,61,-99.99,,,0.00,0,rob ver 1A,2013-02-05 13:03:00,
2013-02-05 06:08:00,51.6,39.2,29.44,ENE,63,2.7,2.8,62,-99.99,,,0.00,0,rob ver 1A,2013-02-05 13:08:00,
2013-02-05 06:13:00,51.7,39.2,29.44,ENE,68,1.9,2.1,62,-99.99,,,0.00,0,rob ver 1A,2013-02-05 13:13:00,
2013-02-05 06:18:00,51.8,39.2,29.44,East,93,0.6,0.9,61,-99.99,,,0.00,0,rob ver 1A,2013-02-05 13:18:00,
2013-02-05 06:23:00,51.0,39.2,29.44,ESE,111,0.4,0.5,63,-99.99,,,0.00,0,rob ver 1A,2013-02-05 13:23:00,
2013-02-05 06:28:00,50.5,39.2,29.44,East,101,0.7,0.9,65,-99.99,,,0.00,0,rob ver 1A,2013-02-05 13:28:00,
2013-02-05 06:33:00,50.3,39.3,29.44,ESE,113,1.1,1.3,66,-99.99,,,0.00,0,rob ver 1A,2013-02-05 13:33:00,
2013-02-05 06:38:00,50.5,39.5,29.47,East,80,2.7,2.9,65,-99.99,,,0.00,0,rob ver 1A,2013-02-05 13:38:00,
2013-02-05 06:43:00,49.7,39.4,29.47,ENE,61,4.1,4.6,67,-99.99,,,0.00,0,rob ver 1A,2013-02-05 13:43:00,
2013-02-05 06:48:00,50.2,39.5,29.44,ENE,59,4.2,4.7,66,-99.99,,,0.00,0,rob ver 1A,2013-02-05 13:48:00,
2013-02-05 06:53:00,50.3,39.8,29.44,NE,39,4.2,5.0,67,-99.99,,,0.00,0,rob ver 1A,2013-02-05 13:53:00,
2013-02-05 06:58:00,50.0,40.0,29.47,NNE,30,3.3,3.8,68,-99.99,,,0.00,0,rob ver 1A,2013-02-05 13:58:00,
2013-02-05 07:03:00,49.8,40.0,29.47,NE,37,3.3,3.8,68,-99.99,,,0.00,0,rob ver 1A,2013-02-05 14:03:00,
2013-02-05 07:08:00,49.6,39.9,29.47,NNE,14,2.7,3.1,68,-99.99,,,0.00,0,rob ver 1A,2013-02-05 14:08:00,
2013-02-05 07:13:00,49.6,39.7,29.47,North,358,3.9,4.5,68,-99.99,,,0.00,.493,rob ver 1A,2013-02-05 14:13:00,
2013-02-05 07:18:00,49.5,39.8,29.47,NNE,12,4.2,4.5,69,-99.99,,,0.00,1.315,rob ver 1A,2013-02-05 14:18:00,
2013-02-05 07:23:00,49.3,39.8,29.47,NNE,30,2.8,3.6,69,-99.99,,,0.00,2.958,rob ver 1A,2013-02-05 14:23:00,
2013-02-05 07:28:00,49.4,39.9,29.47,North,352,3.2,3.5,69,-99.99,,,0.00,4.273,rob ver 1A,2013-02-05 14:28:00,
2013-02-05 07:33:00,49.9,39.9,29.47,NNW,347,2.9,3.6,68,-99.99,,,0.00,10.35,rob ver 1A,2013-02-05 14:33:00,
2013-02-05 07:38:00,49.9,39.8,29.47,North,4,3.1,3.7,67,-99.99,,,0.00,23.01,rob ver 1A,2013-02-05 14:38:00,
2013-02-05 07:43:00,50.1,39.9,29.47,NNE,19,2.9,3.3,67,-99.99,,,0.00,33.86,rob ver 1A,2013-02-05 14:43:00,
2013-02-05 07:48:00,50.9,39.8,29.47,NNE,24,2.6,2.8,65,-99.99,,,0.00,45.03,rob ver 1A,2013-02-05 14:48:00,
2013-02-05 07:54:00,51.5,39.9,29.47,NNE,23,2.4,2.7,64,-99.99,,,0.00,57.03,rob ver 1A,2013-02-05 14:54:00,
2013-02-05 07:59:00,51.8,40.1,29.47,NNE,20,2.6,3.0,64,-99.99,,,0.00,69.68,rob ver 1A,2013-02-05 14:59:00,
2013-02-05 08:04:00,51.5,40.0,29.47,NNE,25,4.3,4.9,64,-99.99,,,0.00,82.2,rob ver 1A,2013-02-05 15:04:00,
2013-02-05 08:09:00,52.3,39.9,29.47,NE,39,2.9,3.6,62,-99.99,,,0.00,95.6,rob ver 1A,2013-02-05 15:09:00,
2013-02-05 08:14:00,53.4,39.5,29.47,NE,56,3.1,3.6,58,-99.99,,,0.00,112.4,rob ver 1A,2013-02-05 15:14:00,
2013-02-05 08:19:00,53.8,39.5,29.47,NE,53,3.1,4.2,58,-99.99,,,0.00,126.7,rob ver 1A,2013-02-05 15:19:00,
2013-02-05 08:24:00,53.9,39.7,29.47,NE,46,3.4,4.4,58,-99.99,,,0.00,140.7,rob ver 1A,2013-02-05 15:24:00,
2013-02-05 08:29:00,54.6,40.1,29.47,NE,47,2.2,3.0,57,-99.99,,,0.00,155.8,rob ver 1A,2013-02-05 15:29:00,
2013-02-05 08:34:00,55.0,39.8,29.47,NNE,23,3.6,4.0,56,-99.99,,,0.00,171.4,rob ver 1A,2013-02-05 15:34:00,
2013-02-05 08:39:00,55.8,39.9,29.47,NNE,27,2.8,3.0,54,-99.99,,,0.00,186.7,rob ver 1A,2013-02-05 15:39:00,
2013-02-05 08:45:00,56.8,40.1,29.47,NNE,31,2.8,3.5,53,-99.99,,,0.00,203.1,rob ver 1A,2013-02-05 15:45:00,
2013-02-05 08:50:00,58.0,39.6,29.47,NE,35,3.5,4.3,50,-99.99,,,0.00,219.2,rob ver 1A,2013-02-05 15:50:00,
2013-02-05 08:55:00,58.4,39.9,29.47,North,8,3.1,3.7,50,-99.99,,,0.00,235.5,rob ver 1A,2013-02-05 15:55:00,
2013-02-05 09:00:00,58.5,40.5,29.47,NNW,343,2.8,3.2,51,-99.99,,,0.00,251.8,rob ver 1A,2013-02-05 16:00:00,
2013-02-05 09:05:00,59.9,40.3,29.47,NNW,340,1.0,1.4,47,-99.99,,,0.00,270.8,rob ver 1A,2013-02-05 16:05:00,
2013-02-05 09:10:00,60.8,39.7,29.47,North,9,1.4,2.1,46,-99.99,,,0.00,286.6,rob ver 1A,2013-02-05 16:10:00,
2013-02-05 09:15:00,61.2,39.4,29.47,NE,36,1.0,1.6,43,-99.99,,,0.00,303,rob ver 1A,2013-02-05 16:15:00,
2013-02-05 09:20:00,62.7,39.0,29.50,NW,311,0.9,1.6,41,-99.99,,,0.00,318,rob ver 1A,2013-02-05 16:20:00,
2013-02-05 09:25:00,62.9,38.8,29.50,West,281,0.5,0.8,40,-99.99,,,0.00,333.1,rob ver 1A,2013-02-05 16:25:00,
2013-02-05 09:30:00,62.7,39.5,29.50,NW,307,0.8,1.4,41,-99.99,,,0.00,348.9,rob ver 1A,2013-02-05 16:30:00,
2013-02-05 09:35:00,63.7,39.8,29.50,NNE,16,0.5,0.9,40,-99.99,,,0.00,364.6,rob ver 1A,2013-02-05 16:35:00,
2013-02-05 09:40:00,65.1,40.0,29.50,SSE,166,0.7,1.1,37,-99.99,,,0.00,379.7,rob ver 1A,2013-02-05 16:40:00,
2013-02-05 09:45:00,65.1,39.7,29.50,WSW,248,1.3,1.9,38,-99.99,,,0.00,394.8,rob ver 1A,2013-02-05 16:45:00,
2013-02-05 09:50:00,63.6,39.5,29.50,WNW,301,1.2,1.7,40,-99.99,,,0.00,409.2,rob ver 1A,2013-02-05 16:50:00,
2013-02-05 09:55:00,65.0,40.2,29.50,SSE,167,0.4,0.7,39,-99.99,,,0.00,423,rob ver 1A,2013-02-05 16:55:00,
2013-02-05 10:00:00,64.7,39.3,29.50,SSW,210,1.6,2.2,39,-99.99,,,0.00,436.8,rob ver 1A,2013-02-05 17:00:00,
2013-02-05 10:05:00,64.1,39.4,29.50,SW,230,2.0,2.8,39,-99.99,,,0.00,451,rob ver 1A,2013-02-05 17:05:00,
2013-02-05 10:10:00,64.2,39.3,29.50,West,271,1.2,2.0,39,-99.99,,,0.00,463.7,rob ver 1A,2013-02-05 17:10:00,
2013-02-05 10:15:00,65.0,39.6,29.50,West,268,1.4,2.1,39,-99.99,,,0.00,476.7,rob ver 1A,2013-02-05 17:15:00,
2013-02-05 10:20:00,64.3,40.3,29.50,WSW,254,2.6,3.6,41,-99.99,,,0.00,489.5,rob ver 1A,2013-02-05 17:20:00,
2013-02-05 10:26:00,64.4,40.3,29.50,SSW,212,1.8,2.9,40,-99.99,,,0.00,501.7,rob ver 1A,2013-02-05 17:26:00,
2013-02-05 10:31:00,64.9,39.8,29.50,WSW,250,2.3,3.2,40,-99.99,,,0.00,513.9,rob ver 1A,2013-02-05 17:31:00,
2013-02-05 10:36:00,66.0,39.7,29.50,SSW,212,2.2,3.0,38,-99.99,,,0.00,525.9,rob ver 1A,2013-02-05 17:36:00,
2013-02-05 10:41:00,65.3,39.5,29.50,SW,236,2.8,3.9,38,-99.99,,,0.00,539.3,rob ver 1A,2013-02-05 17:41:00,
2013-02-05 10:46:00,65.5,39.7,29.50,WSW,245,2.9,4.8,38,-99.99,,,0.00,550.1,rob ver 1A,2013-02-05 17:46:00,
2013-02-05 10:51:00,65.4,39.7,29.50,WSW,245,2.9,4.5,38,-99.99,,,0.00,560.9,rob ver 1A,2013-02-05 17:51:00,
2013-02-05 10:56:00,66.1,39.5,29.50,SW,229,2.4,3.4,37,-99.99,,,0.00,570.7,rob ver 1A,2013-02-05 17:56:00,
2013-02-05 11:01:00,66.1,39.4,29.50,SW,224,2.5,4.0,37,-99.99,,,0.00,581.1,rob ver 1A,2013-02-05 18:01:00,
2013-02-05 11:06:00,67.0,39.2,29.50,SSW,195,1.9,4.0,34,-99.99,,,0.00,590.1,rob ver 1A,2013-02-05 18:06:00,
2013-02-05 11:11:00,67.3,38.2,29.50,West,267,2.5,3.4,33,-99.99,,,0.00,598.7,rob ver 1A,2013-02-05 18:11:00,
2013-02-05 11:16:00,67.6,38.2,29.50,SW,230,2.8,3.6,32,-99.99,,,0.00,607.7,rob ver 1A,2013-02-05 18:16:00,
2013-02-05 11:21:00,67.8,37.1,29.50,SW,224,3.4,4.5,31,-99.99,,,0.00,616.9,rob ver 1A,2013-02-05 18:21:00,
2013-02-05 11:26:00,68.9,36.5,29.50,WNW,288,1.6,2.7,29,-99.99,,,0.00,623.5,rob ver 1A,2013-02-05 18:26:00,
2013-02-05 11:31:00,69.0,35.9,29.50,WNW,297,1.7,2.6,28,-99.99,,,0.00,632.6,rob ver 1A,2013-02-05 18:31:00,
2013-02-05 11:36:00,70.6,35.0,29.50,WNW,291,2.3,3.0,27,-99.99,,,0.00,639.9,rob ver 1A,2013-02-05 18:36:00,
2013-02-05 11:41:00,71.2,35.4,29.50,North,3,2.2,3.3,26,-99.99,,,0.00,646.4,rob ver 1A,2013-02-05 18:41:00,
2013-02-05 11:46:00,70.6,35.3,29.50,NNW,332,2.4,3.4,27,-99.99,,,0.00,652.1,rob ver 1A,2013-02-05 18:46:00,
2013-02-05 11:51:00,71.5,35.2,29.50,WNW,300,1.9,2.9,25,-99.99,,,0.00,657.4,rob ver 1A,2013-02-05 18:51:00,
2013-02-05 11:56:00,70.3,34.2,29.50,WNW,291,2.4,3.5,26,-99.99,,,0.00,663.1,rob ver 1A,2013-02-05 18:56:00,
2013-02-05 12:01:00,70.5,34.0,29.50,West,279,1.6,3.0,25,-99.99,,,0.00,668.3,rob ver 1A,2013-02-05 19:01:00,
2013-02-05 12:07:00,71.0,34.8,29.50,West,264,1.5,2.7,25,-99.99,,,0.00,672.9,rob ver 1A,2013-02-05 19:07:00,
2013-02-05 12:12:00,71.1,33.9,29.50,West,271,2.2,3.8,25,-99.99,,,0.00,677.1,rob ver 1A,2013-02-05 19:12:00,
2013-02-05 12:17:00,71.9,33.7,29.50,SE,142,1.4,2.6,24,-99.99,,,0.00,681,rob ver 1A,2013-02-05 19:17:00,
2013-02-05 12:22:00,72.7,34.6,29.50,SE,133,1.9,2.6,24,-99.99,,,0.00,683.6,rob ver 1A,2013-02-05 19:22:00,
2013-02-05 12:27:00,72.5,34.4,29.50,South,174,3.5,5.2,24,-99.99,,,0.00,686.7,rob ver 1B,2013-02-05 19:27:00,
2013-02-05 12:32:00,72.6,34.1,29.47,SSW,197,2.8,4.5,24,-99.99,,,0.00,688.3,rob ver 1A,2013-02-05 19:32:00,
2013-02-05 12:37:00,72.4,34.5,29.47,SE,139,2.4,4.1,25,-99.99,,,0.00,689.4,rob ver 1A,2013-02-05 19:37:00,
2013-02-05 12:42:00,72.6,35.3,29.47,SSW,193,2.3,4.5,24,-99.99,,,0.00,690.2,rob ver 1A,2013-02-05 19:42:00,
2013-02-05 12:47:00,72.4,34.6,29.47,WSW,241,5.1,7.0,24,-99.99,,,0.00,691.2,rob ver 1A,2013-02-05 19:47:00,
2013-02-05 12:53:00,72.2,34.7,29.47,SSE,154,2.5,3.5,25,-99.99,,,0.00,691.7,rob ver 1A,2013-02-05 19:53:00,
2013-02-05 12:58:00,73.6,34.9,29.47,East,87,1.1,2.6,24,-99.99,,,0.00,691.3,rob ver 1A,2013-02-05 19:58:00,
2013-02-05 13:03:00,74.3,35.2,29.47,South,180,5.0,7.2,24,-99.99,,,0.00,690.7,rob ver 1A,2013-02-05 20:03:00,
2013-02-05 13:08:00,74.1,35.0,29.47,SSW,204,2.7,4.8,24,-99.99,,,0.00,689.7,rob ver 1A,2013-02-05 20:08:00,
2013-02-05 13:13:00,74.7,34.9,29.47,WNW,302,1.0,2.4,23,-99.99,,,0.00,688,rob ver 1A,2013-02-05 20:13:00,
2013-02-05 13:18:00,73.7,34.3,29.47,South,179,5.3,6.7,23,-99.99,,,0.00,686.7,rob ver 1B,2013-02-05 20:18:00,
2013-02-05 13:23:00,74.5,34.7,29.44,South,181,3.4,6.4,23,-99.99,,,0.00,684.3,rob ver 1A,2013-02-05 20:23:00,
2013-02-05 13:28:00,74.3,34.4,29.44,SW,215,5.8,7.6,23,-99.99,,,0.00,682.2,rob ver 1A,2013-02-05 20:28:00,
2013-02-05 13:33:00,74.6,34.7,29.44,WSW,240,2.4,3.0,23,-99.99,,,0.00,679.3,rob ver 1A,2013-02-05 20:33:00,
2013-02-05 13:38:00,74.2,35.0,29.44,SSE,162,4.8,6.6,24,-99.99,,,0.00,675.2,rob ver 1A,2013-02-05 20:38:00,
2013-02-05 13:43:00,74.1,35.2,29.44,WNW,288,4.1,5.6,23,-99.99,,,0.00,671.6,rob ver 1B,2013-02-05 20:43:00,
2013-02-05 13:48:00,75.0,35.1,29.44,SSE,159,3.1,7.3,23,-99.99,,,0.00,667.5,rob ver 1A,2013-02-05 20:48:00,
2013-02-05 13:53:00,75.5,34.1,29.44,West,259,3.0,3.8,22,-99.99,,,0.00,662.2,rob ver 1A,2013-02-05 20:53:00,
2013-02-05 13:58:00,75.1,34.1,29.44,SSW,198,5.0,7.3,21,-99.99,,,0.00,658,rob ver 1A,2013-02-05 20:58:00,
2013-02-05 14:03:00,76.4,34.2,29.44,WSW,239,1.4,2.0,21,-99.99,,,0.00,651.6,rob ver 1A,2013-02-05 21:03:00,
2013-02-05 14:08:00,75.6,33.2,29.44,SSW,192,5.1,6.6,21,-99.99,,,0.00,646.5,rob ver 1A,2013-02-05 21:08:00,
2013-02-05 14:13:00,75.2,33.9,29.41,South,181,3.0,4.6,21,-99.99,,,0.00,639.1,rob ver 1A,2013-02-05 21:13:00,
2013-02-05 14:18:00,75.8,33.7,29.41,SW,230,1.3,3.5,20,-99.99,,,0.00,631.9,rob ver 1A,2013-02-05 21:18:00,
2013-02-05 14:23:00,76.6,33.2,29.41,SSW,196,3.1,4.4,20,-99.99,,,0.00,624.5,rob ver 1A,2013-02-05 21:23:00,
2013-02-05 14:28:00,75.0,32.5,29.41,SSW,201,4.0,8.8,21,-99.99,,,0.00,617.1,rob ver 1A,2013-02-05 21:28:00,
2013-02-05 14:33:00,75.3,32.2,29.41,SSW,207,6.2,8.1,20,-99.99,,,0.00,609.1,rob ver 1A,2013-02-05 21:33:00,
2013-02-05 14:39:00,75.5,31.8,29.41,SSW,213,6.6,8.9,20,-99.99,,,0.00,600.9,rob ver 1A,2013-02-05 21:39:00,
2013-02-05 14:44:00,76.0,30.9,29.41,West,267,4.9,6.9,19,-99.99,,,0.00,590.2,rob ver 1A,2013-02-05 21:44:00,
2013-02-05 14:49:00,75.5,30.8,29.41,WSW,257,5.3,7.6,19,-99.99,,,0.00,581.1,rob ver 1A,2013-02-05 21:49:00,
2013-02-05 14:54:00,75.8,30.2,29.41,WNW,302,1.0,2.2,18,-99.99,,,0.00,572,rob ver 1A,2013-02-05 21:54:00,
2013-02-05 14:59:00,75.6,29.8,29.41,WSW,247,3.2,5.1,18,-99.99,,,0.00,561.4,rob ver 1A,2013-02-05 21:59:00,
2013-02-05 15:04:00,76.3,29.6,29.41,SSE,162,1.1,2.7,18,-99.99,,,0.00,551.7,rob ver 1A,2013-02-05 22:04:00,
2013-02-05 15:09:00,76.7,27.5,29.41,NNW,334,3.0,4.4,16,-99.99,,,0.00,541.2,rob ver 1B,2013-02-05 22:09:00,
2013-02-05 15:14:00,76.5,28.7,29.41,West,271,5.4,6.7,16,-99.99,,,0.00,529.9,rob ver 1A,2013-02-05 22:14:00,
2013-02-05 15:19:00,76.4,27.7,29.41,WNW,290,5.2,6.6,16,-99.99,,,0.00,517.1,rob ver 1A,2013-02-05 22:19:00,
2013-02-05 15:24:00,76.5,27.8,29.41,West,280,2.0,3.6,16,-99.99,,,0.00,505.8,rob ver 1A,2013-02-05 22:24:00,
2013-02-05 15:29:00,77.1,27.6,29.41,SW,231,2.4,3.4,15,-99.99,,,0.00,493,rob ver 1A,2013-02-05 22:29:00,
2013-02-05 15:34:00,77.1,27.8,29.41,ENE,73,2.6,4.0,16,-99.99,,,0.00,479.9,rob ver 1A,2013-02-05 22:34:00,
2013-02-05 15:39:00,76.5,28.4,29.41,SSW,199,2.3,3.3,17,-99.99,,,0.00,467.3,rob ver 1A,2013-02-05 22:39:00,
2013-02-05 15:44:00,77.2,27.2,29.38,West,274,4.6,7.3,15,-99.99,,,0.00,453.7,rob ver 1B,2013-02-05 22:44:00,
2013-02-05 15:49:00,76.6,27.1,29.38,West,266,2.4,3.6,15,-99.99,,,0.00,439.6,rob ver 1A,2013-02-05 22:49:00,
2013-02-05 15:54:00,77.6,27.6,29.38,WSW,239,3.1,7.3,15,-99.99,,,0.00,426.8,rob ver 1A,2013-02-05 22:54:00,
2013-02-05 15:59:00,77.0,26.9,29.38,West,277,3.5,5.1,15,-99.99,,,0.00,412.9,rob ver 1A,2013-02-05 22:59:00,
2013-02-05 16:04:00,77.3,26.6,29.38,SW,220,2.0,3.3,15,-99.99,,,0.00,398.3,rob ver 1A,2013-02-05 23:04:00,
2013-02-05 16:09:00,77.3,27.0,29.38,WNW,286,3.7,5.2,15,-99.99,,,0.00,383.5,rob ver 1A,2013-02-05 23:09:00,
2013-02-05 16:14:00,78.0,26.9,29.38,NNW,342,1.1,2.1,15,-99.99,,,0.00,368.3,rob ver 1A,2013-02-05 23:14:00,
2013-02-05 16:19:00,77.8,27.2,29.38,North,359,1.8,2.6,15,-99.99,,,0.00,353.1,rob ver 1A,2013-02-05 23:19:00,
2013-02-05 16:24:00,77.5,26.8,29.38,SSW,199,2.3,4.7,15,-99.99,,,0.00,338.8,rob ver 1A,2013-02-05 23:24:00,
2013-02-05 16:30:00,77.6,27.4,29.38,SW,224,3.4,6.2,15,-99.99,,,0.00,322.9,rob ver 1A,2013-02-05 23:30:00,
2013-02-05 16:35:00,77.6,25.1,29.38,NW,319,2.3,3.7,14,-99.99,,,0.00,307.8,rob ver 1A,2013-02-05 23:35:00,
2013-02-05 16:40:00,77.4,26.4,29.38,WNW,285,3.9,5.0,15,-99.99,,,0.00,292.1,rob ver 1A,2013-02-05 23:40:00,
2013-02-05 16:45:00,76.9,26.2,29.38,NNW,328,3.3,4.3,15,-99.99,,,0.00,273.1,rob ver 1A,2013-02-05 23:45:00,
2013-02-05 16:50:00,77.1,26.4,29.38,North,351,2.7,3.7,15,-99.99,,,0.00,243.6,rob ver 1A,2013-02-05 23:50:00,
2013-02-05 16:55:00,77.3,26.4,29.38,SW,227,2.0,2.6,15,-99.99,,,0.00,241.6,rob ver 1B,2013-02-05 23:55:00,
2013-02-05 17:00:00,78.2,25.6,29.38,WNW,292,2.7,5.5,14,-99.99,,,0.00,224.9,rob ver 1A,2013-02-06 00:00:00,
2013-02-05 17:05:00,77.1,25.2,29.38,NW,310,3.5,4.7,14,-99.99,,,0.00,115.9,rob ver 1A,2013-02-06 00:05:00,
2013-02-05 17:10:00,76.4,25.2,29.38,NNW,331,3.1,3.6,14,-99.99,,,0.00,153.7,rob ver 1A,2013-02-06 00:10:00,
2013-02-05 17:15:00,76.3,24.0,29.38,West,271,2.9,3.9,14,-99.99,,,0.00,142.1,rob ver 1A,2013-02-06 00:15:00,
2013-02-05 17:20:00,76.4,24.4,29.38,WSW,239,1.6,2.1,14,-99.99,,,0.00,137,rob ver 1A,2013-02-06 00:20:00,
2013-02-05 17:25:00,77.0,24.7,29.38,SSE,147,0.8,1.3,14,-99.99,,,0.00,100.3,rob ver 1A,2013-02-06 00:25:00,
2013-02-05 17:30:00,77.3,25.9,29.38,WSW,240,3.8,5.6,14,-99.99,,,0.00,114.4,rob ver 1B,2013-02-06 00:30:00,
2013-02-05 17:35:00,76.2,25.7,29.38,SSW,203,3.0,3.5,15,-99.99,,,0.00,41.31,rob ver 1A,2013-02-06 00:35:00,
2013-02-05 17:41:00,75.5,26.0,29.38,SSW,204,3.7,4.5,15,-99.99,,,0.00,31.14,rob ver 1A,2013-02-06 00:41:00,
2013-02-05 17:46:00,75.1,26.4,29.38,SSW,209,2.8,3.4,16,-99.99,,,0.00,20.98,rob ver 1A,2013-02-06 00:46:00,
2013-02-05 17:51:00,74.9,25.6,29.38,SW,216,3.1,3.9,15,-99.99,,,0.00,20,rob ver 1A,2013-02-06 00:51:00,
2013-02-05 17:56:00,74.8,26.0,29.38,SW,215,3.1,3.5,16,-99.99,,,0.00,15.74,rob ver 1B,2013-02-06 00:56:00,
2013-02-05 18:01:00,74.3,27.9,29.38,SW,215,2.9,3.5,18,-99.99,,,0.00,11.97,rob ver 1A,2013-02-06 01:01:00,
2013-02-05 18:06:00,73.8,29.3,29.38,SW,214,2.5,2.9,18,-99.99,,,0.00,8.52,rob ver 1A,2013-02-06 01:06:00,
2013-02-05 18:11:00,73.4,29.1,29.38,SSW,207,2.0,2.1,19,-99.99,,,0.00,4.591,rob ver 1A,2013-02-06 01:11:00,
2013-02-05 18:16:00,73.0,28.8,29.38,SSW,202,2.0,2.1,19,-99.99,,,0.00,2.296,rob ver 1A,2013-02-06 01:16:00,
2013-02-05 18:21:00,72.8,28.0,29.38,SSW,211,2.3,2.4,19,-99.99,,,0.00,1.312,rob ver 1A,2013-02-06 01:21:00,
2013-02-05 18:26:00,72.8,30.0,29.38,SW,216,2.4,2.6,20,-99.99,,,0.00,1.64,rob ver 1A,2013-02-06 01:26:00,
2013-02-05 18:31:00,72.2,30.5,29.38,WSW,239,1.5,1.6,21,-99.99,,,0.00,.328,rob ver 1A,2013-02-06 01:31:00,
2013-02-05 18:36:00,71.6,31.8,29.38,WNW,289,1.1,1.4,22,-99.99,,,0.00,0,rob ver 1A,2013-02-06 01:36:00,
2013-02-05 18:41:00,71.3,30.2,29.38,WSW,249,1.3,1.5,22,-99.99,,,0.00,0,rob ver 1A,2013-02-06 01:41:00,
2013-02-05 18:46:00,71.4,30.4,29.38,SW,226,2.8,3.5,21,-99.99,,,0.00,0,rob ver 1B,2013-02-06 01:46:00,
2013-02-05 18:51:00,70.8,32.1,29.38,SW,216,2.6,2.8,23,-99.99,,,0.00,0,rob ver 1A,2013-02-06 01:51:00,
2013-02-05 18:56:00,70.5,32.5,29.38,SSW,204,3.1,3.6,24,-99.99,,,0.00,0,rob ver 1A,2013-02-06 01:56:00,
2013-02-05 19:01:00,70.2,32.8,29.38,SSW,205,1.7,1.9,25,-99.99,,,0.00,0,rob ver 1A,2013-02-06 02:01:00,
2013-02-05 19:07:00,69.9,32.7,29.38,SSW,194,1.9,2.3,25,-99.99,,,0.00,0,rob ver 1A,2013-02-06 02:07:00,
2013-02-05 19:12:00,69.4,33.9,29.38,SSW,199,2.8,3.0,27,-99.99,,,0.00,0,rob ver 1A,2013-02-06 02:12:00,
2013-02-05 19:17:00,68.9,34.0,29.38,SSW,193,2.7,3.1,27,-99.99,,,0.00,0,rob ver 1A,2013-02-06 02:17:00,
2013-02-05 19:22:00,68.6,35.0,29.38,SE,132,1.0,1.4,28,-99.99,,,0.00,0,rob ver 1A,2013-02-06 02:22:00,
2013-02-05 19:27:00,68.4,34.5,29.38,SSE,152,1.8,2.1,28,-99.99,,,0.00,0,rob ver 1A,2013-02-06 02:27:00,
2013-02-05 19:32:00,68.6,34.5,29.38,SSE,160,2.4,2.7,28,-99.99,,,0.00,0,rob ver 1A,2013-02-06 02:32:00,
2013-02-05 19:37:00,68.6,34.6,29.38,South,169,2.5,3.1,28,-99.99,,,0.00,0,rob ver 1A,2013-02-06 02:37:00,
2013-02-05 19:42:00,68.7,34.6,29.38,South,177,2.5,2.9,28,-99.99,,,0.00,0,rob ver 1A,2013-02-06 02:42:00,
2013-02-05 19:47:00,68.5,34.9,29.38,SSE,161,2.8,3.1,28,-99.99,,,0.00,0,rob ver 1A,2013-02-06 02:47:00,
2013-02-05 19:52:00,68.3,35.2,29.38,SSE,165,2.9,3.4,29,-99.99,,,0.00,0,rob ver 1A,2013-02-06 02:52:00,
2013-02-05 19:57:00,68.3,35.4,29.38,South,191,3.0,3.6,29,-99.99,,,0.00,0,rob ver 1A,2013-02-06 02:57:00,
2013-02-05 20:02:00,67.7,35.8,29.38,ESE,108,1.0,1.4,30,-99.99,,,0.00,0,rob ver 1A,2013-02-06 03:02:00,
2013-02-05 20:07:00,67.4,35.8,29.38,ESE,122,2.5,3.0,31,-99.99,,,0.00,0,rob ver 1A,2013-02-06 03:07:00,
2013-02-05 20:12:00,67.6,35.7,29.38,South,171,3.1,3.5,30,-99.99,,,0.00,0,rob ver 1A,2013-02-06 03:12:00,
2013-02-05 20:17:00,67.4,36.0,29.38,South,175,2.4,2.9,31,-99.99,,,0.00,0,rob ver 1A,2013-02-06 03:17:00,
2013-02-05 20:22:00,67.0,35.9,29.38,SE,144,1.5,2.1,31,-99.99,,,0.00,0,rob ver 1A,2013-02-06 03:22:00,
2013-02-05 20:28:00,66.8,35.9,29.38,South,187,1.5,2.1,31,-99.99,,,0.00,0,rob ver 1A,2013-02-06 03:28:00,
2013-02-05 20:33:00,66.5,35.8,29.38,South,177,0.6,1.0,32,-99.99,,,0.00,0,rob ver 1A,2013-02-06 03:33:00,
2013-02-05 20:38:00,66.2,35.8,29.38,ENE,59,0.5,1.1,32,-99.99,,,0.00,0,rob ver 1A,2013-02-06 03:38:00,
2013-02-05 20:43:00,66.5,35.6,29.38,East,96,1.4,2.0,31,-99.99,,,0.00,0,rob ver 1A,2013-02-06 03:43:00,
2013-02-05 20:48:00,66.8,35.7,29.38,ENE,57,1.5,2.1,31,-99.99,,,0.00,0,rob ver 1A,2013-02-06 03:48:00,
2013-02-05 20:53:00,67.2,35.5,29.38,ENE,75,2.7,3.2,30,-99.99,,,0.00,0,rob ver 1A,2013-02-06 03:53:00,
2013-02-05 20:58:00,67.0,35.2,29.38,East,96,3.8,4.8,30,-99.99,,,0.00,0,rob ver 1A,2013-02-06 03:58:00,
2013-02-05 21:03:00,67.9,34.6,29.38,SSE,166,4.8,6.7,29,-99.99,,,0.00,0,rob ver 1A,2013-02-06 04:03:00,
2013-02-05 21:08:00,67.8,34.8,29.38,SSE,160,5.2,6.1,29,-99.99,,,0.00,0,rob ver 1A,2013-02-06 04:08:00,
2013-02-05 21:13:00,66.9,35.6,29.38,SE,133,4.0,5.7,31,-99.99,,,0.00,0,rob ver 1B,2013-02-06 04:13:00,
2013-02-05 21:18:00,66.2,36.3,29.38,ESE,107,3.1,3.6,32,-99.99,,,0.00,0,rob ver 1A,2013-02-06 04:18:00,
2013-02-05 21:23:00,65.7,35.8,29.38,ESE,111,4.3,5.0,32,-99.99,,,0.00,0,rob ver 1A,2013-02-06 04:23:00,
2013-02-05 21:28:00,66.1,35.9,29.38,East,100,3.4,4.0,32,-99.99,,,0.00,0,rob ver 1A,2013-02-06 04:28:00,
2013-02-05 21:33:00,65.1,36.3,29.38,ENE,58,3.4,4.2,34,-99.99,,,0.00,0,rob ver 1A,2013-02-06 04:33:00,
2013-02-05 21:38:00,64.7,36.1,29.38,ENE,66,2.9,3.6,34,-99.99,,,0.00,0,rob ver 1A,2013-02-06 04:38:00,
2013-02-05 21:43:00,65.0,35.8,29.38,ENE,77,2.5,3.2,34,-99.99,,,0.00,0,rob ver 1A,2013-02-06 04:43:00,
2013-02-05 21:48:00,65.2,35.8,29.38,East,80,2.4,2.7,33,-99.99,,,0.00,0,rob ver 1A,2013-02-06 04:48:00,
2013-02-05 21:53:00,65.1,35.9,29.38,NE,56,2.7,3.0,34,-99.99,,,0.00,0,rob ver 1B,2013-02-06 04:53:00,
2013-02-05 21:58:00,65.0,35.9,29.38,NE,52,2.7,3.2,33,-99.99,,,0.00,0,rob ver 1A,2013-02-06 04:58:00,
2013-02-05 22:00:00,65.0,36.1,29.38,NE,47,3.1,3.6,34,-99.99,,,0.00,0,rob ver 1B,2013-02-06 05:00:00,
2013-02-05 22:01:00,64.8,36.3,29.38,NE,45,3.4,3.8,34,-99.99,,,0.00,0,rob ver 1B,2013-02-06 05:01:00,
2013-02-05 22:06:00,64.1,37.0,29.38,NE,45,3.2,3.6,36,-99.99,,,0.00,0,rob ver 1A,2013-02-06 05:06:00,
2013-02-05 22:11:00,64.3,36.4,29.38,NE,54,2.3,2.8,34,-99.99,,,0.00,0,rob ver 1A,2013-02-06 05:11:00,
2013-02-05 22:17:00,64.1,35.9,29.38,ENE,71,2.0,2.5,34,-99.99,,,0.00,0,rob ver 1A,2013-02-06 05:17:00,
2013-02-05 22:22:00,65.2,35.7,29.38,ESE,104,2.0,2.5,33,-99.99,,,0.00,0,rob ver 1A,2013-02-06 05:22:00,
2013-02-05 22:27:00,65.5,35.9,29.38,ESE,108,2.1,2.7,33,-99.99,,,0.00,0,rob ver 1A,2013-02-06 05:27:00,
2013-02-05 22:32:00,65.3,36.0,29.38,ESE,102,2.4,2.9,33,-99.99,,,0.00,0,rob ver 1A,2013-02-06 05:32:00,
2013-02-05 22:37:00,65.3,35.7,29.38,East,96,2.0,2.7,33,-99.99,,,0.00,0,rob ver 1A,2013-02-06 05:37:00,
2013-02-05 22:42:00,65.0,35.9,29.38,ESE,105,1.8,2.7,33,-99.99,,,0.00,0,rob ver 1A,2013-02-06 05:42:00,
2013-02-05 22:47:00,64.5,36.8,29.38,SE,134,2.7,4.3,35,-99.99,,,0.00,0,rob ver 1A,2013-02-06 05:47:00,
2013-02-05 22:52:00,64.2,37.4,29.38,South,173,4.1,6.4,37,-99.99,,,0.00,0,rob ver 1A,2013-02-06 05:52:00,
2013-02-05 22:57:00,63.9,38.4,29.38,South,179,7.1,8.5,39,-99.99,,,0.00,0,rob ver 1A,2013-02-06 05:57:00,
2013-02-05 23:02:00,63.8,39.3,29.38,South,184,9.6,11.1,40,-99.99,,,0.00,0,rob ver 1A,2013-02-06 06:02:00,
2013-02-05 23:07:00,64.1,39.5,29.38,South,187,9.4,11.9,40,-99.99,,,0.00,0,rob ver 1A,2013-02-06 06:07:00,
2013-02-05 23:12:00,63.9,39.9,29.38,South,189,9.8,12.1,41,-99.99,,,0.00,0,rob ver 1A,2013-02-06 06:12:00,
2013-02-05 23:17:00,63.8,39.9,29.38,South,188,9.1,11.1,41,-99.99,,,0.00,0,rob ver 1A,2013-02-06 06:17:00,
2013-02-05 23:22:00,63.7,39.7,29.38,South,188,9.2,12.0,40,-99.99,,,0.00,0,rob ver 1A,2013-02-06 06:22:00,
2013-02-05 23:27:00,63.6,39.6,29.38,South,186,9.0,11.0,41,-99.99,,,0.00,0,rob ver 1A,2013-02-06 06:27:00,
2013-02-05 23:32:00,63.3,39.6,29.38,South,190,8.8,11.0,41,-99.99,,,0.00,0,rob ver 1A,2013-02-06 06:32:00,
2013-02-05 23:37:00,63.2,39.5,29.38,South,188,8.5,10.4,41,-99.99,,,0.00,0,rob ver 1A,2013-02-06 06:37:00,
2013-02-05 23:42:00,63.2,39.4,29.38,South,189,8.0,11.3,41,-99.99,,,0.00,0,rob ver 1A,2013-02-06 06:42:00,
2013-02-05 23:47:00,63.0,39.5,29.38,South,187,8.3,10.8,41,-99.99,,,0.00,0,rob ver 1A,2013-02-06 06:47:00,
2013-02-05 23:52:00,62.8,39.5,29.38,South,183,7.7,9.4,42,-99.99,,,0.00,0,rob ver 1A,2013-02-06 06:52:00,
2013-02-05 23:57:00,62.3,39.6,29.38,South,182,6.5,7.7,43,-99.99,,,0.00,0,rob ver 1A,2013-02-06 06:57:00,